Plains, Texas
Current Conditions -  °F | °C
As of 5:35 AM on Thursday 27 Nov 2014 (Local Time) from KGNC Reporting Station
Clear Clear  
Wind Chill: 33°   Ceiling: Unl
Heat Index: 33°   Visibility: 10mi
Dew Point: 29°   Wind: 0mph
Humidity: 86%   Direction: NA
Pressure: 30.44"   Gusts: NA
Location:  33.19°N, 102.83°W
Report Text: KGNC 271135Z AUTO 00000KT 10SM CLR 00/M02 A3044 RMK AO2 T00041017
Loading
Personal Weather Stations






























Interactive Weather Map New forecast layout! Learn more

10-Day Weather Forecast

Advertisements
Track Severe Weather on mobile